createdAt,value
2023-05-20T00:00:33.968Z,1.77
2023-05-20T00:03:00.998Z,1.90
2023-05-20T00:05:27.597Z,1.80
2023-05-20T00:07:54.051Z,1.80
2023-05-20T00:10:20.585Z,2.30
2023-05-20T00:12:47.086Z,1.93
2023-05-20T00:15:13.592Z,2.20
2023-05-20T00:17:40.198Z,1.90
2023-05-20T00:20:07.341Z,2.03
2023-05-20T00:22:33.854Z,2.10
2023-05-20T00:25:00.293Z,2.30
2023-05-20T00:27:27.210Z,1.80
2023-05-20T00:29:53.664Z,1.50
2023-05-20T00:32:20.114Z,1.77
2023-05-20T00:34:56.371Z,1.93
2023-05-20T00:37:22.835Z,1.93
2023-05-20T00:39:49.333Z,1.57
2023-05-20T00:42:22.919Z,2.00
2023-05-20T00:44:49.715Z,2.00
2023-05-20T00:47:21.120Z,1.60
2023-05-20T00:49:50.542Z,1.77
2023-05-20T00:52:21.277Z,2.17
2023-05-20T00:54:47.783Z,1.80
2023-05-20T00:57:15.374Z,1.70
2023-05-20T00:59:43.484Z,1.70
2023-05-20T01:02:11.437Z,2.30
2023-05-20T01:04:38.010Z,1.97
2023-05-20T01:07:06.503Z,2.13
2023-05-20T01:09:33.495Z,2.30
2023-05-20T01:12:09.299Z,1.90
2023-05-20T01:14:40.077Z,2.30
2023-05-20T01:17:11.141Z,2.20
2023-05-20T01:22:14.397Z,2.40
2023-05-20T01:24:42.364Z,2.00
2023-05-20T01:27:13.627Z,1.90
2023-05-20T01:29:41.229Z,1.83
2023-05-20T01:32:16.186Z,2.10
2023-05-20T01:34:43.900Z,2.20
2023-05-20T01:37:11.407Z,2.10
2023-05-20T01:39:41.700Z,1.80
2023-05-20T01:42:10.271Z,2.40
2023-05-20T01:44:37.335Z,1.93
2023-05-20T01:47:04.312Z,2.17
2023-05-20T01:49:30.975Z,2.23
2023-05-20T01:51:57.764Z,2.53
2023-05-20T01:54:24.270Z,3.10
2023-05-20T01:56:50.947Z,1.70
2023-05-20T01:59:17.509Z,1.97
2023-05-20T02:01:44.076Z,2.50
2023-05-20T02:04:10.694Z,1.97
2023-05-20T02:06:37.154Z,2.33
2023-05-20T02:09:03.911Z,1.77
2023-05-20T02:11:30.411Z,2.17
2023-05-20T02:13:57.078Z,2.50
2023-05-20T02:16:23.720Z,2.90
2023-05-20T02:18:53.078Z,2.50
2023-05-20T02:21:19.739Z,2.27
2023-05-20T02:23:46.540Z,2.67
2023-05-20T02:26:13.092Z,2.47
2023-05-20T02:28:43.538Z,2.50
2023-05-20T02:31:09.966Z,2.40
2023-05-20T02:33:36.411Z,2.40
2023-05-20T02:36:02.877Z,2.43
2023-05-20T02:38:31.715Z,2.20
2023-05-20T02:40:59.833Z,2.37
2023-05-20T02:43:26.372Z,1.93
2023-05-20T02:45:52.965Z,2.37
2023-05-20T02:48:19.423Z,2.70
2023-05-20T02:50:46.857Z,2.67
2023-05-20T02:53:13.480Z,2.50
2023-05-20T02:55:40.921Z,2.40
2023-05-20T02:58:07.609Z,2.40
2023-05-20T03:00:40.655Z,2.77
2023-05-20T03:03:08.241Z,2.70
2023-05-20T03:05:37.950Z,2.27
2023-05-20T03:08:10.886Z,2.47
2023-05-20T03:10:40.551Z,2.40
2023-05-20T03:13:09.398Z,2.20
2023-05-20T03:15:36.781Z,2.13
2023-05-20T03:18:03.665Z,2.20
2023-05-20T03:20:30.613Z,2.40
2023-05-20T03:22:57.106Z,2.70
2023-05-20T03:25:24.610Z,2.27
2023-05-20T03:27:51.501Z,2.23
2023-05-20T03:30:17.984Z,2.30
2023-05-20T03:32:44.903Z,2.80
2023-05-20T03:35:11.474Z,2.17
2023-05-20T03:37:37.986Z,2.27
2023-05-20T03:40:07.849Z,2.23
2023-05-20T03:42:34.644Z,2.27
2023-05-20T03:45:01.187Z,2.67
2023-05-20T03:47:28.675Z,2.57
2023-05-20T03:49:55.222Z,2.70
2023-05-20T03:52:21.798Z,2.30
2023-05-20T03:54:48.240Z,3.03
2023-05-20T03:57:14.784Z,2.47
2023-05-20T03:59:41.785Z,2.47
2023-05-20T04:02:09.066Z,2.50
2023-05-20T04:04:36.187Z,2.60
2023-05-20T04:07:05.236Z,2.43
2023-05-20T04:09:32.021Z,2.50
2023-05-20T04:11:58.596Z,2.80
2023-05-20T04:14:25.118Z,2.57
2023-05-20T04:16:52.457Z,2.50
2023-05-20T04:19:24.205Z,2.63
2023-05-20T04:21:50.814Z,2.00
2023-05-20T04:24:17.368Z,2.30
2023-05-20T04:26:44.460Z,2.50
2023-05-20T04:29:11.891Z,2.27
2023-05-20T04:31:38.594Z,2.40
2023-05-20T04:34:05.147Z,2.57
2023-05-20T04:36:31.586Z,2.50
2023-05-20T04:38:58.012Z,2.23
2023-05-20T04:41:24.514Z,2.37
2023-05-20T04:43:50.956Z,2.37
2023-05-20T04:46:17.448Z,2.33
2023-05-20T04:48:43.991Z,2.37
2023-05-20T04:51:11.119Z,2.70
2023-05-20T04:53:38.098Z,2.40
2023-05-20T04:56:05.663Z,2.60
2023-05-20T04:58:33.417Z,2.50
2023-05-20T05:00:59.960Z,2.73
2023-05-20T05:03:26.465Z,2.63
2023-05-20T05:05:56.632Z,2.47
2023-05-20T05:08:23.190Z,2.87
2023-05-20T05:10:49.759Z,2.30
2023-05-20T05:13:16.279Z,2.70
2023-05-20T05:15:42.806Z,2.63
2023-05-20T05:18:09.607Z,2.20
2023-05-20T05:20:36.293Z,3.10
2023-05-20T05:23:03.149Z,2.87
2023-05-20T05:25:29.749Z,2.70
2023-05-20T05:27:56.334Z,2.80
2023-05-20T05:30:22.856Z,3.30
2023-05-20T05:32:49.501Z,3.17
2023-05-20T05:35:16.112Z,2.80
2023-05-20T05:37:42.510Z,3.00
2023-05-20T05:40:09.299Z,3.43
2023-05-20T05:42:35.810Z,3.07
2023-05-20T05:45:02.211Z,3.17
2023-05-20T05:47:32.393Z,3.27
2023-05-20T05:49:59.988Z,3.13
2023-05-20T05:52:27.241Z,3.10
2023-05-20T05:54:54.339Z,3.40
2023-05-20T05:57:20.788Z,3.30
2023-05-20T05:59:47.227Z,3.73
2023-05-20T06:02:14.636Z,3.10
2023-05-20T06:04:41.552Z,3.07
2023-05-20T06:07:08.126Z,3.60
2023-05-20T06:09:34.973Z,4.53
2023-05-20T06:12:02.581Z,3.63
2023-05-20T06:14:29.115Z,3.10
2023-05-20T06:16:55.692Z,3.50
2023-05-20T06:19:22.301Z,3.50
2023-05-20T06:21:48.820Z,3.53
2023-05-20T06:24:15.994Z,3.37
2023-05-20T06:26:42.548Z,3.47
2023-05-20T06:29:09.036Z,3.43
2023-05-20T06:31:35.454Z,3.17
2023-05-20T06:34:01.890Z,3.97
2023-05-20T06:36:30.279Z,3.53
2023-05-20T06:38:58.265Z,3.07
2023-05-20T06:41:24.690Z,3.30
2023-05-20T06:43:53.324Z,3.33
2023-05-20T06:46:20.504Z,3.37
2023-05-20T06:48:46.973Z,2.97
2023-05-20T06:51:14.080Z,2.87
2023-05-20T06:53:40.569Z,2.93
2023-05-20T06:56:07.159Z,2.80
2023-05-20T06:58:33.629Z,3.53
2023-05-20T07:01:00.245Z,3.23
2023-05-20T07:03:26.702Z,3.33
2023-05-20T07:05:53.337Z,3.30
2023-05-20T07:08:19.776Z,3.03
2023-05-20T07:10:46.825Z,4.00
2023-05-20T07:13:13.436Z,2.70
2023-05-20T07:15:39.894Z,3.63
2023-05-20T07:18:06.631Z,3.07
2023-05-20T07:20:33.204Z,3.43
2023-05-20T07:23:00.928Z,3.10
2023-05-20T07:25:27.538Z,3.00
2023-05-20T07:27:54.247Z,3.47
2023-05-20T07:30:20.943Z,3.13
2023-05-20T07:32:47.469Z,3.40
2023-05-20T07:35:13.968Z,3.20
2023-05-20T07:37:40.742Z,3.37
2023-05-20T07:40:07.872Z,3.50
2023-05-20T07:42:35.105Z,3.30
2023-05-20T07:45:01.572Z,3.30
2023-05-20T07:47:28.456Z,3.30
2023-05-20T07:49:54.983Z,4.00
2023-05-20T07:52:21.420Z,3.20
2023-05-20T07:54:47.869Z,3.30
2023-05-20T07:57:14.350Z,3.83
2023-05-20T07:59:41.156Z,4.03
2023-05-20T08:02:08.395Z,4.13
2023-05-20T08:04:35.291Z,4.13
2023-05-20T08:07:01.922Z,3.87
2023-05-20T08:09:28.463Z,4.30
2023-05-20T08:11:54.921Z,4.10
2023-05-20T08:14:21.608Z,4.00
2023-05-20T08:16:48.192Z,5.70
2023-05-20T08:19:14.928Z,4.00
2023-05-20T08:21:41.422Z,3.77
2023-05-20T08:24:08.016Z,3.60
2023-05-20T08:26:34.466Z,3.80
2023-05-20T08:29:01.281Z,3.60
2023-05-20T08:31:28.018Z,3.60
2023-05-20T08:33:54.565Z,3.50
2023-05-20T08:36:21.007Z,4.07
2023-05-20T08:38:47.704Z,3.90
2023-05-20T08:41:14.150Z,4.20
2023-05-20T08:43:41.251Z,4.03
2023-05-20T08:46:08.484Z,4.13
2023-05-20T08:48:35.821Z,3.83
2023-05-20T08:51:03.625Z,3.27
2023-05-20T08:53:30.470Z,3.50
2023-05-20T08:56:02.629Z,3.50
2023-05-20T08:58:30.206Z,4.33
2023-05-20T09:00:56.940Z,3.87
2023-05-20T09:03:24.386Z,3.93
2023-05-20T09:05:51.131Z,4.17
2023-05-20T09:08:17.658Z,5.13
2023-05-20T09:10:44.185Z,4.10
2023-05-20T09:13:11.461Z,4.37
2023-05-20T09:15:39.107Z,4.37
2023-05-20T09:18:07.459Z,3.67
2023-05-20T09:20:37.228Z,3.47
2023-05-20T09:23:06.357Z,3.70
2023-05-20T09:25:33.484Z,4.47
2023-05-20T09:28:00.240Z,5.20
2023-05-20T09:30:27.124Z,4.53
2023-05-20T09:32:58.383Z,4.47
2023-05-20T09:35:26.217Z,4.00
2023-05-20T09:37:54.928Z,4.60
2023-05-20T09:40:27.912Z,5.00
2023-05-20T09:42:59.906Z,4.43
2023-05-20T09:45:27.103Z,4.13
2023-05-20T09:47:55.033Z,4.30
2023-05-20T09:50:23.366Z,4.17
2023-05-20T09:52:51.757Z,4.73
2023-05-20T09:55:19.858Z,5.97
2023-05-20T09:57:47.215Z,5.17
2023-05-20T10:00:17.253Z,4.40
2023-05-20T10:02:46.132Z,5.07
2023-05-20T10:05:18.629Z,4.80
2023-05-20T10:08:20.677Z,4.63
2023-05-20T10:11:15.921Z,4.80
2023-05-20T10:14:01.159Z,4.83
2023-05-20T10:16:45.961Z,5.97
2023-05-20T10:19:18.425Z,4.87
2023-05-20T10:21:45.068Z,4.63
2023-05-20T10:24:11.852Z,4.40
2023-05-20T10:26:39.718Z,4.53
2023-05-20T10:29:19.929Z,4.40
2023-05-20T10:31:51.904Z,5.13
2023-05-20T10:34:20.966Z,5.53
2023-05-20T10:36:58.571Z,5.00
2023-05-20T10:39:30.260Z,5.00
2023-05-20T10:42:10.559Z,8.90
2023-05-20T10:44:44.580Z,4.90
2023-05-20T10:49:47.570Z,5.17
2023-05-20T10:52:14.728Z,5.20
2023-05-20T10:54:57.705Z,5.43
2023-05-20T10:57:26.644Z,6.50
2023-05-20T10:59:53.423Z,5.27
2023-05-20T11:02:26.442Z,4.90
2023-05-20T11:04:53.563Z,4.93
2023-05-20T11:07:31.444Z,5.37
2023-05-20T11:09:58.936Z,5.20
2023-05-20T11:12:27.853Z,5.47
2023-05-20T11:14:54.736Z,5.97
2023-05-20T11:17:21.261Z,5.07
2023-05-20T11:19:48.646Z,5.30
2023-05-20T11:22:24.219Z,5.67
2023-05-20T11:24:50.654Z,5.40
2023-05-20T11:27:17.135Z,5.70
2023-05-20T11:29:43.625Z,4.97
2023-05-20T11:32:10.234Z,5.23
2023-05-20T11:34:38.092Z,5.20
2023-05-20T11:37:09.310Z,5.37
2023-05-20T11:39:37.066Z,5.70
2023-05-20T11:42:03.707Z,5.77
2023-05-20T11:44:30.268Z,5.40
2023-05-20T11:47:01.781Z,5.60
2023-05-20T11:49:28.579Z,5.70
2023-05-20T11:51:55.086Z,5.20
2023-05-20T11:54:23.783Z,5.73
2023-05-20T11:56:50.748Z,6.33
2023-05-20T11:59:17.265Z,5.90
2023-05-20T12:01:44.339Z,5.50
2023-05-20T12:04:11.269Z,5.60
2023-05-20T12:06:38.082Z,5.87
2023-05-20T12:09:07.235Z,6.13
2023-05-20T12:11:39.769Z,6.33
2023-05-20T12:14:06.729Z,5.17
2023-05-20T12:16:34.453Z,5.70
2023-05-20T12:19:01.191Z,5.60
2023-05-20T12:21:31.530Z,6.10
2023-05-20T12:24:01.663Z,6.20
2023-05-20T12:26:29.171Z,5.80
2023-05-20T12:28:56.089Z,5.90
2023-05-20T12:31:22.779Z,6.17
2023-05-20T12:33:49.380Z,6.97
2023-05-20T12:36:16.430Z,5.63
2023-05-20T12:38:43.159Z,6.00
2023-05-20T12:41:09.600Z,5.93
2023-05-20T12:43:37.486Z,6.60
2023-05-20T12:46:04.380Z,6.07
2023-05-20T12:48:30.871Z,5.40
2023-05-20T12:50:57.363Z,5.83
2023-05-20T12:53:23.873Z,6.60
2023-05-20T12:55:50.447Z,5.90
2023-05-20T12:58:16.951Z,5.97
2023-05-20T13:00:43.491Z,6.40
2023-05-20T13:03:10.092Z,6.80
2023-05-20T13:05:36.669Z,6.70
2023-05-20T13:08:03.265Z,6.10
2023-05-20T13:10:29.788Z,6.63
2023-05-20T13:12:56.618Z,6.57
2023-05-20T13:15:23.095Z,6.20
2023-05-20T13:17:49.706Z,5.80
2023-05-20T13:20:18.386Z,5.93
2023-05-20T13:22:46.320Z,6.20
2023-05-20T13:25:12.766Z,6.10
2023-05-20T13:27:39.315Z,6.80
2023-05-20T13:30:06.920Z,6.23
2023-05-20T13:32:33.452Z,6.03
2023-05-20T13:35:00.098Z,6.30
2023-05-20T13:37:26.593Z,6.60
2023-05-20T13:39:53.100Z,6.77
2023-05-20T13:42:21.438Z,7.83
2023-05-20T13:44:47.948Z,6.40
2023-05-20T13:47:14.454Z,6.20
2023-05-20T13:49:41.022Z,6.17
2023-05-20T13:52:07.464Z,6.67
2023-05-20T13:54:33.960Z,6.70
2023-05-20T13:57:01.353Z,7.60
2023-05-20T13:59:28.383Z,6.13
2023-05-20T14:01:54.900Z,7.70
2023-05-20T14:04:22.303Z,6.50
2023-05-20T14:06:48.837Z,7.20
2023-05-20T14:09:15.418Z,6.73
2023-05-20T14:11:41.996Z,6.37
2023-05-20T14:14:08.454Z,6.13
2023-05-20T14:16:34.960Z,8.73
2023-05-20T14:19:01.450Z,7.80
2023-05-20T14:21:27.969Z,5.83
2023-05-20T14:23:54.456Z,6.40
2023-05-20T14:26:21.703Z,6.53
2023-05-20T14:28:48.244Z,6.53
2023-05-20T14:31:14.768Z,6.67
2023-05-20T14:33:41.242Z,6.77
2023-05-20T14:36:07.920Z,6.40
2023-05-20T14:38:34.381Z,6.30
2023-05-20T14:41:00.798Z,6.53
2023-05-20T14:43:27.316Z,6.17
2023-05-20T14:45:53.794Z,6.80
2023-05-20T14:48:20.285Z,6.67
2023-05-20T14:50:48.939Z,6.50
2023-05-20T14:53:17.157Z,6.07
2023-05-20T14:55:43.635Z,5.87
2023-05-20T14:58:10.167Z,6.20
2023-05-20T15:00:36.964Z,5.60
2023-05-20T15:03:03.907Z,6.20
2023-05-20T15:05:30.912Z,6.70
2023-05-20T15:07:57.512Z,6.07
2023-05-20T15:10:23.943Z,6.20
2023-05-20T15:12:51.353Z,6.00
2023-05-20T15:15:17.946Z,6.57
2023-05-20T15:17:44.453Z,5.87
2023-05-20T15:20:11.465Z,6.07
2023-05-20T15:22:38.332Z,6.10
2023-05-20T15:25:05.751Z,6.60
2023-05-20T15:27:32.438Z,5.77
2023-05-20T15:29:59.181Z,5.83
2023-05-20T15:32:25.804Z,5.40
2023-05-20T15:34:52.501Z,5.70
2023-05-20T15:37:19.013Z,5.50
2023-05-20T15:39:45.534Z,6.10
2023-05-20T15:42:13.914Z,6.20
2023-05-20T15:44:40.421Z,5.50
2023-05-20T15:47:06.897Z,5.90
2023-05-20T15:49:33.316Z,5.80
2023-05-20T15:52:03.476Z,6.57
2023-05-20T15:54:30.877Z,6.00
2023-05-20T15:56:57.982Z,5.77
2023-05-20T15:59:24.776Z,6.23
2023-05-20T16:01:51.621Z,5.70
2023-05-20T16:04:19.168Z,5.57
2023-05-20T16:06:45.952Z,6.60
2023-05-20T16:09:12.368Z,5.93
2023-05-20T16:11:38.842Z,5.67
2023-05-20T16:14:05.544Z,5.97
2023-05-20T16:16:35.075Z,6.73
2023-05-20T16:19:02.506Z,6.47
2023-05-20T16:21:28.934Z,5.23
2023-05-20T16:23:55.514Z,6.97
2023-05-20T16:26:22.687Z,5.90
2023-05-20T16:28:49.169Z,10.03
2023-05-20T16:31:16.459Z,6.40
2023-05-20T16:33:42.996Z,6.60
2023-05-20T16:36:09.462Z,6.80
2023-05-20T16:38:36.520Z,6.40
2023-05-20T16:41:02.976Z,6.60
2023-05-20T16:43:29.457Z,6.53
2023-05-20T16:45:56.066Z,6.10
2023-05-20T16:48:22.571Z,12.53
2023-05-20T16:50:49.026Z,43.30
2023-05-20T16:53:16.621Z,9.80
2023-05-20T16:55:43.279Z,8.90
2023-05-20T16:58:09.801Z,7.60
2023-05-20T17:00:36.363Z,7.87
2023-05-20T17:03:02.965Z,8.80
2023-05-20T17:05:29.451Z,7.20
2023-05-20T17:07:59.789Z,6.60
2023-05-20T17:10:28.459Z,6.60
2023-05-20T17:12:55.481Z,6.50
2023-05-20T17:15:23.629Z,6.23
2023-05-20T17:17:51.594Z,5.60
2023-05-20T17:20:18.248Z,5.20
2023-05-20T17:22:44.671Z,6.60
2023-05-20T17:25:11.407Z,6.57
2023-05-20T17:27:38.204Z,5.97
2023-05-20T17:30:05.706Z,5.73
2023-05-20T17:32:32.232Z,6.30
2023-05-20T17:34:58.684Z,6.60
2023-05-20T17:37:25.095Z,5.57
2023-05-20T17:39:51.537Z,5.50
2023-05-20T17:42:17.958Z,6.40
2023-05-20T17:44:44.400Z,5.57
2023-05-20T17:47:10.958Z,5.53
2023-05-20T17:49:37.528Z,6.00
2023-05-20T17:52:04.261Z,6.20
2023-05-20T17:54:30.969Z,5.70
2023-05-20T17:56:57.459Z,7.10
2023-05-20T17:59:25.420Z,6.20
2023-05-20T18:01:53.851Z,6.07
2023-05-20T18:04:21.326Z,6.87
2023-05-20T18:06:47.798Z,6.37
2023-05-20T18:09:14.396Z,6.00
2023-05-20T18:11:41.199Z,6.90
2023-05-20T18:14:07.796Z,6.60
2023-05-20T18:16:34.888Z,6.03
2023-05-20T18:19:02.613Z,6.37
2023-05-20T18:21:29.410Z,6.13
2023-05-20T18:23:56.404Z,6.27
2023-05-20T18:26:23.181Z,6.23
2023-05-20T18:28:50.094Z,6.70
2023-05-20T18:31:16.754Z,6.17
2023-05-20T18:33:43.212Z,6.43
2023-05-20T18:36:09.743Z,7.00
2023-05-20T18:38:36.545Z,6.90
2023-05-20T18:41:04.011Z,6.80
2023-05-20T18:43:30.510Z,7.23
2023-05-20T18:45:57.057Z,6.90
2023-05-20T18:48:27.139Z,8.07
2023-05-20T18:50:58.559Z,8.37
2023-05-20T18:53:25.048Z,7.77
2023-05-20T18:55:51.815Z,7.43
2023-05-20T18:58:18.286Z,7.50
2023-05-20T19:00:44.789Z,7.90
2023-05-20T19:03:11.686Z,8.13
2023-05-20T19:05:38.627Z,7.20
2023-05-20T19:08:05.922Z,7.37
2023-05-20T19:10:32.937Z,7.47
2023-05-20T19:12:59.711Z,6.73
2023-05-20T19:15:26.566Z,7.03
2023-05-20T19:17:53.132Z,7.40
2023-05-20T19:20:19.931Z,7.23
2023-05-20T19:22:46.691Z,7.33
2023-05-20T19:25:13.362Z,7.43
2023-05-20T19:27:39.873Z,8.10
2023-05-20T19:30:09.162Z,7.50
2023-05-20T19:32:37.146Z,7.70
2023-05-20T19:35:05.752Z,7.50
2023-05-20T19:37:32.359Z,7.67
2023-05-20T19:39:58.777Z,6.90
2023-05-20T19:42:25.217Z,8.13
2023-05-20T19:44:51.662Z,7.40
2023-05-20T19:47:18.184Z,7.00
2023-05-20T19:49:44.637Z,7.80
2023-05-20T19:52:11.127Z,7.80
2023-05-20T19:54:37.771Z,8.17
2023-05-20T19:57:04.350Z,7.10
2023-05-20T19:59:30.838Z,9.07
2023-05-20T20:02:02.640Z,8.50
2023-05-20T20:04:29.805Z,7.23
2023-05-20T20:06:56.352Z,8.57
2023-05-20T20:09:22.849Z,7.90
2023-05-20T20:11:49.283Z,7.00
2023-05-20T20:14:16.186Z,8.07
2023-05-20T20:16:48.890Z,7.40
2023-05-20T20:19:22.818Z,8.00
2023-05-20T20:21:52.974Z,7.57
2023-05-20T20:24:20.087Z,8.27
2023-05-20T20:26:49.222Z,8.80
2023-05-20T20:29:15.722Z,8.30
2023-05-20T20:31:42.251Z,8.03
2023-05-20T20:34:08.853Z,7.80
2023-05-20T20:36:35.395Z,8.57
2023-05-20T20:39:04.906Z,8.23
2023-05-20T20:41:32.250Z,8.13
2023-05-20T20:43:59.374Z,8.53
2023-05-20T20:46:27.646Z,8.30
2023-05-20T20:48:54.268Z,7.50
2023-05-20T20:51:20.811Z,9.10
2023-05-20T20:53:48.622Z,8.47
2023-05-20T20:56:15.210Z,8.23
2023-05-20T20:58:41.729Z,8.90
2023-05-20T21:01:10.055Z,8.73
2023-05-20T21:03:40.236Z,9.30
2023-05-20T21:06:07.725Z,9.20
2023-05-20T21:08:34.243Z,9.00
2023-05-20T21:11:00.681Z,8.83
2023-05-20T21:13:27.713Z,7.90
2023-05-20T21:15:54.549Z,8.97
2023-05-20T21:18:24.280Z,8.20
2023-05-20T21:20:52.413Z,9.30
2023-05-20T21:23:20.514Z,8.40
2023-05-20T21:25:47.590Z,9.63
2023-05-20T21:28:14.557Z,9.10
2023-05-20T21:30:41.074Z,8.70
2023-05-20T21:33:07.713Z,9.40
2023-05-20T21:35:34.491Z,10.27
2023-05-20T21:38:01.112Z,9.40
2023-05-20T21:40:27.621Z,10.10
2023-05-20T21:42:54.118Z,9.80
2023-05-20T21:45:20.627Z,10.27
2023-05-20T21:47:47.213Z,10.00
2023-05-20T21:50:13.800Z,9.40
2023-05-20T21:52:40.284Z,9.80
2023-05-20T21:55:10.592Z,9.40
2023-05-20T21:57:37.491Z,9.20
2023-05-20T22:00:09.938Z,9.70
2023-05-20T22:02:37.273Z,9.60
2023-05-20T22:05:04.846Z,8.80
2023-05-20T22:07:31.758Z,9.67
2023-05-20T22:09:58.634Z,10.27
2023-05-20T22:12:25.401Z,9.23
2023-05-20T22:14:51.845Z,8.80
2023-05-20T22:17:18.376Z,9.10
2023-05-20T22:19:44.830Z,9.80
2023-05-20T22:22:11.295Z,9.33
2023-05-20T22:24:37.740Z,9.00
2023-05-20T22:27:04.530Z,9.77
2023-05-20T22:29:32.457Z,10.83
2023-05-20T22:31:59.243Z,10.90
2023-05-20T22:34:26.059Z,10.33
2023-05-20T22:36:53.896Z,10.97
2023-05-20T22:39:21.529Z,9.90
2023-05-20T22:41:48.026Z,9.90
2023-05-20T22:44:14.762Z,9.90
2023-05-20T22:46:41.299Z,10.70
2023-05-20T22:49:07.840Z,10.80
2023-05-20T22:51:35.174Z,9.53
2023-05-20T22:54:01.813Z,9.53
2023-05-20T22:56:29.591Z,10.20
2023-05-20T22:58:56.045Z,11.30
2023-05-20T23:01:22.547Z,9.57
2023-05-20T23:03:49.168Z,10.57
2023-05-20T23:06:15.690Z,10.77
2023-05-20T23:08:44.423Z,10.30
2023-05-20T23:11:11.204Z,10.30
2023-05-20T23:13:37.635Z,11.37
2023-05-20T23:16:05.954Z,11.10
2023-05-20T23:18:33.205Z,11.13
2023-05-20T23:20:59.729Z,10.63
2023-05-20T23:23:31.266Z,9.77
2023-05-20T23:25:58.798Z,10.33
2023-05-20T23:28:25.425Z,10.20
2023-05-20T23:30:51.909Z,10.63
2023-05-20T23:33:24.301Z,10.87
2023-05-20T23:35:51.972Z,10.70
2023-05-20T23:38:18.675Z,10.03
2023-05-20T23:40:45.106Z,11.97
2023-05-20T23:43:11.584Z,10.97
2023-05-20T23:45:38.249Z,10.83
2023-05-20T23:48:06.096Z,12.00
2023-05-20T23:50:32.843Z,10.50
2023-05-20T23:52:59.706Z,10.47
2023-05-20T23:55:28.336Z,11.00
2023-05-20T23:57:55.049Z,11.10
